createdAt,value
2022-12-23T00:00:43.152Z,100.00
2022-12-23T00:03:10.352Z,100.00
2022-12-23T00:05:41.823Z,100.00
2022-12-23T00:08:08.721Z,100.00
2022-12-23T00:10:39.031Z,100.00
2022-12-23T00:13:24.750Z,100.00
2022-12-23T00:15:51.726Z,100.00
2022-12-23T00:18:18.606Z,100.00
2022-12-23T00:20:45.632Z,100.00
2022-12-23T00:23:12.360Z,100.00
2022-12-23T00:25:44.831Z,100.00
2022-12-23T00:28:17.520Z,100.00
2022-12-23T00:30:50.000Z,100.00
2022-12-23T00:33:18.930Z,100.00
2022-12-23T00:35:46.929Z,100.00
2022-12-23T00:38:14.751Z,100.00
2022-12-23T00:41:01.038Z,100.00
2022-12-23T00:43:29.420Z,100.00
2022-12-23T00:45:56.290Z,100.00
2022-12-23T00:48:41.611Z,100.00
2022-12-23T00:51:08.446Z,100.00
2022-12-23T00:53:35.633Z,100.00
2022-12-23T00:56:02.680Z,100.00
2022-12-23T00:58:29.607Z,100.00
2022-12-23T01:01:14.916Z,100.00
2022-12-23T01:04:00.449Z,100.00
2022-12-23T01:06:27.297Z,100.00
2022-12-23T01:08:54.202Z,100.00
2022-12-23T01:11:21.358Z,100.00
2022-12-23T01:13:48.181Z,100.00
2022-12-23T01:16:18.083Z,100.00
2022-12-23T01:18:45.800Z,100.00
2022-12-23T01:21:12.961Z,100.00
2022-12-23T01:23:39.806Z,100.00
2022-12-23T01:26:08.827Z,100.00
2022-12-23T01:28:37.009Z,100.00
2022-12-23T01:31:06.206Z,100.00
2022-12-23T01:33:34.004Z,100.00
2022-12-23T01:36:07.070Z,100.00
2022-12-23T01:38:37.354Z,100.00
2022-12-23T01:41:04.334Z,100.00
2022-12-23T01:43:52.078Z,100.00
2022-12-23T01:46:19.110Z,100.00
2022-12-23T01:48:51.526Z,100.00
2022-12-23T01:51:26.268Z,100.00
2022-12-23T01:53:57.601Z,100.00
2022-12-23T01:56:38.304Z,100.00
2022-12-23T01:59:34.222Z,100.00
2022-12-23T02:02:40.590Z,100.00
2022-12-23T02:05:08.448Z,100.00
2022-12-23T02:07:55.227Z,100.00
2022-12-23T02:10:30.408Z,100.00
2022-12-23T02:13:19.673Z,100.00
2022-12-23T02:16:18.592Z,100.00
2022-12-23T02:18:53.807Z,100.00
2022-12-23T02:21:33.398Z,100.00
2022-12-23T02:24:18.240Z,100.00
2022-12-23T02:27:14.079Z,100.00
2022-12-23T02:30:18.228Z,100.00
2022-12-23T02:33:20.831Z,100.00
2022-12-23T02:36:00.050Z,100.00
2022-12-23T02:38:40.824Z,100.00
2022-12-23T02:41:40.793Z,100.00
2022-12-23T02:44:34.489Z,100.00
2022-12-23T02:47:07.601Z,100.00
2022-12-23T02:49:39.761Z,100.00
2022-12-23T02:52:13.911Z,100.00
2022-12-23T02:54:50.312Z,100.00
2022-12-23T02:57:23.892Z,100.00
2022-12-23T02:59:53.873Z,100.00
2022-12-23T03:02:21.516Z,100.00
2022-12-23T03:04:48.688Z,100.00
2022-12-23T03:07:25.325Z,100.00
2022-12-23T03:10:10.794Z,100.00
2022-12-23T03:13:10.514Z,100.00
2022-12-23T03:15:47.523Z,100.00
2022-12-23T03:18:25.874Z,100.00
2022-12-23T03:21:18.888Z,100.00
2022-12-23T03:24:06.997Z,100.00
2022-12-23T03:26:45.595Z,100.00
2022-12-23T03:29:21.200Z,100.00
2022-12-23T03:31:50.837Z,100.00
2022-12-23T03:34:23.396Z,100.00
2022-12-23T03:36:56.481Z,100.00
2022-12-23T03:39:30.207Z,100.00
2022-12-23T03:42:07.927Z,100.00
2022-12-23T03:44:57.165Z,100.00
2022-12-23T03:47:35.241Z,100.00
2022-12-23T03:50:20.143Z,99.62
2022-12-23T03:53:07.970Z,98.87
2022-12-23T03:55:42.442Z,99.40
2022-12-23T03:58:37.918Z,100.00
2022-12-23T04:01:18.467Z,99.68
2022-12-23T04:04:07.530Z,100.00
2022-12-23T04:06:42.672Z,100.00
2022-12-23T04:09:13.481Z,98.75
2022-12-23T04:11:43.790Z,99.25
2022-12-23T04:14:10.672Z,98.84
2022-12-23T04:16:38.549Z,99.99
2022-12-23T04:19:05.429Z,100.00
2022-12-23T04:21:32.384Z,99.88
2022-12-23T04:24:00.039Z,100.00
2022-12-23T04:26:27.078Z,98.94
2022-12-23T04:28:54.027Z,99.06
2022-12-23T04:31:22.099Z,99.24
2022-12-23T04:33:49.239Z,98.67
2022-12-23T04:36:16.152Z,98.50
2022-12-23T04:38:43.027Z,97.71
2022-12-23T04:41:09.895Z,98.19
2022-12-23T04:43:36.699Z,98.25
2022-12-23T04:46:03.594Z,97.58
2022-12-23T04:48:30.436Z,96.96
2022-12-23T04:50:57.364Z,97.31
2022-12-23T04:53:24.204Z,97.65
2022-12-23T04:55:52.073Z,97.94
2022-12-23T04:58:22.277Z,97.91
2022-12-23T05:00:49.346Z,98.20
2022-12-23T05:03:16.212Z,97.21
2022-12-23T05:05:44.557Z,96.51
2022-12-23T05:08:11.752Z,97.30
2022-12-23T05:10:38.665Z,97.53
2022-12-23T05:13:05.585Z,97.73
2022-12-23T05:15:33.247Z,97.63
2022-12-23T05:18:00.235Z,98.46
2022-12-23T05:20:27.039Z,97.90
2022-12-23T05:22:53.850Z,98.36
2022-12-23T05:25:21.050Z,98.24
2022-12-23T05:27:47.917Z,97.61
2022-12-23T05:30:15.227Z,97.21
2022-12-23T05:32:42.006Z,97.25
2022-12-23T05:35:09.388Z,97.34
2022-12-23T05:37:36.433Z,97.08
2022-12-23T05:40:03.631Z,97.45
2022-12-23T05:42:30.682Z,96.74
2022-12-23T05:44:57.602Z,96.57
2022-12-23T05:47:24.553Z,95.44
2022-12-23T05:49:51.486Z,95.22
2022-12-23T05:52:18.432Z,95.30
2022-12-23T05:54:47.519Z,94.94
2022-12-23T05:57:14.566Z,95.54
2022-12-23T05:59:41.474Z,95.44
2022-12-23T06:02:09.163Z,94.74
2022-12-23T06:04:38.647Z,94.99
2022-12-23T06:07:05.711Z,95.88
2022-12-23T06:09:32.959Z,95.22
2022-12-23T06:11:59.756Z,95.83
2022-12-23T06:14:29.023Z,95.64
2022-12-23T06:16:56.380Z,95.53
2022-12-23T06:19:23.785Z,95.09
2022-12-23T06:21:50.673Z,95.99
2022-12-23T06:24:17.592Z,95.46
2022-12-23T06:26:45.823Z,96.17
2022-12-23T06:29:12.716Z,96.02
2022-12-23T06:31:39.683Z,95.91
2022-12-23T06:34:06.568Z,95.32
2022-12-23T06:36:33.473Z,95.82
2022-12-23T06:39:00.484Z,95.96
2022-12-23T06:41:27.286Z,95.64
2022-12-23T06:43:54.684Z,95.43
2022-12-23T06:46:22.136Z,95.38
2022-12-23T06:48:49.055Z,94.99
2022-12-23T06:51:16.019Z,94.87
2022-12-23T06:53:42.811Z,95.20
2022-12-23T06:56:10.111Z,95.27
2022-12-23T06:58:36.993Z,95.22
2022-12-23T07:01:04.243Z,94.67
2022-12-23T07:03:31.249Z,94.84
2022-12-23T07:05:58.242Z,95.07
2022-12-23T07:08:25.238Z,93.56
2022-12-23T07:10:58.921Z,94.38
2022-12-23T07:13:26.525Z,94.39
2022-12-23T07:15:53.958Z,94.51
2022-12-23T07:18:23.046Z,94.44
2022-12-23T07:20:50.871Z,94.91
2022-12-23T07:23:18.273Z,94.76
2022-12-23T07:25:45.524Z,94.20
2022-12-23T07:28:12.433Z,94.23
2022-12-23T07:30:39.311Z,94.21
2022-12-23T07:33:06.557Z,94.79
2022-12-23T07:35:34.105Z,93.82
2022-12-23T07:38:01.369Z,94.20
2022-12-23T07:40:28.505Z,94.13
2022-12-23T07:42:57.902Z,94.42
2022-12-23T07:45:29.511Z,94.08
2022-12-23T07:47:58.592Z,94.73
2022-12-23T07:50:26.915Z,94.17
2022-12-23T07:52:54.635Z,94.73
2022-12-23T07:55:21.831Z,94.25
2022-12-23T07:57:52.802Z,94.31
2022-12-23T08:00:21.349Z,94.93
2022-12-23T08:02:48.671Z,94.70
2022-12-23T08:05:16.891Z,95.28
2022-12-23T08:07:45.551Z,94.47
2022-12-23T08:10:13.245Z,94.14
2022-12-23T08:12:40.124Z,94.15
2022-12-23T08:15:08.811Z,94.50
2022-12-23T08:17:35.607Z,94.47
2022-12-23T08:20:02.678Z,94.86
2022-12-23T08:22:32.077Z,94.99
2022-12-23T08:25:00.129Z,94.90
2022-12-23T08:27:27.090Z,94.36
2022-12-23T08:29:54.071Z,94.11
2022-12-23T08:32:21.185Z,94.77
2022-12-23T08:34:48.012Z,94.49
2022-12-23T08:37:15.404Z,95.52
2022-12-23T08:39:43.951Z,94.95
2022-12-23T08:42:10.923Z,94.49
2022-12-23T08:44:37.735Z,93.88
2022-12-23T08:47:04.753Z,94.73
2022-12-23T08:49:31.608Z,93.82
2022-12-23T08:51:58.741Z,95.60
2022-12-23T08:54:27.445Z,93.68
2022-12-23T08:56:54.869Z,94.58
2022-12-23T08:59:23.297Z,95.15
2022-12-23T09:01:50.510Z,94.04
2022-12-23T09:04:17.673Z,94.22
2022-12-23T09:06:45.754Z,94.78
2022-12-23T09:09:14.953Z,95.45
2022-12-23T09:11:42.030Z,95.51
2022-12-23T09:14:10.477Z,95.79
2022-12-23T09:16:37.870Z,95.66
2022-12-23T09:19:05.110Z,94.80
2022-12-23T09:21:32.082Z,95.52
2022-12-23T09:23:59.133Z,96.49
2022-12-23T09:26:29.012Z,95.31
2022-12-23T09:28:57.199Z,96.26
2022-12-23T09:31:26.755Z,97.29
2022-12-23T09:33:56.231Z,98.43
2022-12-23T09:36:23.196Z,99.64
2022-12-23T09:38:58.223Z,100.00
2022-12-23T09:41:27.754Z,100.00
2022-12-23T09:44:19.149Z,100.00
2022-12-23T09:46:51.889Z,100.00
2022-12-23T09:49:21.192Z,100.00
2022-12-23T09:51:50.385Z,100.00
2022-12-23T10:01:33.627Z,100.00
2022-12-23T10:04:03.602Z,100.00
2022-12-23T10:06:32.241Z,100.00
2022-12-23T10:09:02.751Z,100.00
2022-12-23T10:11:38.322Z,100.00
2022-12-23T10:14:20.979Z,100.00
2022-12-23T10:17:11.248Z,100.00
2022-12-23T10:19:45.861Z,100.00
2022-12-23T10:22:38.862Z,100.00
2022-12-23T10:25:29.111Z,100.00
2022-12-23T10:27:56.237Z,100.00
2022-12-23T10:30:53.988Z,100.00
2022-12-23T10:33:24.564Z,100.00
2022-12-23T10:36:07.430Z,100.00
2022-12-23T10:38:51.299Z,100.00
2022-12-23T10:41:44.135Z,100.00
2022-12-23T10:44:14.007Z,100.00
2022-12-23T10:47:00.369Z,100.00
2022-12-23T10:49:45.896Z,100.00
2022-12-23T10:52:29.292Z,100.00
2022-12-23T10:54:56.088Z,100.00
2022-12-23T10:57:25.093Z,100.00
2022-12-23T10:59:52.260Z,100.00
2022-12-23T11:02:38.075Z,100.00
2022-12-23T11:05:15.132Z,100.00
2022-12-23T11:07:45.699Z,100.00
2022-12-23T11:10:17.805Z,100.00
2022-12-23T11:12:47.972Z,100.00
2022-12-23T11:15:34.852Z,100.00
2022-12-23T11:18:12.049Z,100.00
2022-12-23T11:20:41.459Z,100.00
2022-12-23T11:23:37.893Z,100.00
2022-12-23T11:26:08.225Z,100.00
2022-12-23T11:28:38.928Z,100.00
2022-12-23T11:31:11.809Z,100.00
2022-12-23T11:33:45.783Z,100.00
2022-12-23T11:36:12.807Z,100.00
2022-12-23T11:39:11.816Z,100.00
2022-12-23T11:41:44.539Z,100.00
2022-12-23T11:44:17.373Z,100.00
2022-12-23T11:46:44.491Z,100.00
2022-12-23T11:49:44.612Z,100.00
2022-12-23T11:52:44.785Z,100.00
2022-12-23T11:55:41.199Z,100.00
2022-12-23T11:58:22.304Z,100.00
2022-12-23T12:01:09.214Z,100.00
2022-12-23T12:03:57.892Z,100.00
2022-12-23T12:06:43.265Z,100.00
2022-12-23T12:09:15.369Z,100.00
2022-12-23T12:12:17.016Z,100.00
2022-12-23T12:14:56.158Z,100.00
2022-12-23T12:17:43.910Z,100.00
2022-12-23T12:20:41.324Z,100.00
2022-12-23T12:24:17.879Z,100.00
2022-12-23T12:27:16.543Z,100.00
2022-12-23T12:30:01.049Z,100.00
2022-12-23T12:33:12.843Z,100.00
2022-12-23T12:35:49.485Z,100.00
2022-12-23T12:38:29.416Z,100.00
2022-12-23T12:41:29.727Z,100.00
2022-12-23T12:44:30.520Z,100.00
2022-12-23T12:47:36.718Z,100.00
2022-12-23T12:50:36.957Z,100.00
2022-12-23T12:53:25.178Z,100.00
2022-12-23T12:59:43.766Z,100.00
2022-12-23T13:02:22.746Z,100.00
2022-12-23T13:05:13.693Z,100.00
2022-12-23T13:07:48.132Z,100.00
2022-12-23T13:10:48.867Z,100.00
2022-12-23T13:13:36.965Z,100.00
2022-12-23T13:16:35.682Z,100.00
2022-12-23T13:19:19.268Z,100.00
2022-12-23T13:22:05.666Z,100.00
2022-12-23T13:24:42.625Z,100.00
2022-12-23T13:27:40.536Z,100.00
2022-12-23T13:30:18.130Z,100.00
2022-12-23T13:32:57.245Z,100.00
2022-12-23T13:35:36.160Z,100.00
2022-12-23T13:38:25.785Z,100.00
2022-12-23T13:41:42.491Z,100.00
2022-12-23T13:44:15.535Z,100.00
2022-12-23T13:47:21.822Z,100.00
2022-12-23T13:49:58.614Z,100.00
2022-12-23T13:53:11.773Z,100.00
2022-12-23T13:55:58.485Z,100.00
2022-12-23T13:58:32.917Z,100.00
2022-12-23T14:01:13.324Z,100.00
2022-12-23T14:03:44.864Z,100.00
2022-12-23T14:06:28.585Z,100.00
2022-12-23T14:09:07.089Z,100.00
2022-12-23T14:11:46.708Z,100.00
2022-12-23T14:14:26.215Z,100.00
2022-12-23T14:17:23.619Z,100.00
2022-12-23T14:20:27.945Z,100.00
2022-12-23T14:23:15.769Z,100.00
2022-12-23T14:25:59.735Z,100.00
2022-12-23T14:28:44.897Z,100.00
2022-12-23T14:34:36.417Z,100.00
2022-12-23T14:37:21.729Z,100.00
2022-12-23T14:39:50.195Z,100.00
2022-12-23T14:42:48.692Z,100.00
2022-12-23T14:45:38.449Z,100.00
2022-12-23T14:49:37.622Z,100.00
2022-12-23T14:52:50.985Z,100.00
2022-12-23T14:55:33.325Z,100.00
2022-12-23T14:58:28.121Z,100.00
2022-12-23T15:01:32.031Z,100.00
2022-12-23T15:04:01.728Z,100.00
2022-12-23T15:06:35.739Z,100.00
2022-12-23T15:09:03.649Z,100.00
2022-12-23T15:11:33.362Z,100.00
2022-12-23T15:14:10.614Z,100.00
2022-12-23T15:16:40.446Z,100.00
2022-12-23T15:19:27.779Z,100.00
2022-12-23T15:22:22.259Z,100.00
2022-12-23T15:24:50.794Z,100.00
2022-12-23T15:27:29.427Z,100.00
2022-12-23T15:29:57.214Z,100.00
2022-12-23T15:32:26.481Z,100.00
2022-12-23T15:35:03.048Z,100.00
2022-12-23T15:37:31.583Z,100.00
2022-12-23T15:40:09.388Z,100.00
2022-12-23T15:42:39.671Z,100.00
2022-12-23T15:45:33.163Z,100.00
2022-12-23T15:48:00.952Z,100.00
2022-12-23T15:50:28.719Z,100.00
2022-12-23T15:53:03.173Z,100.00
2022-12-23T15:55:32.979Z,100.00
2022-12-23T15:58:01.291Z,100.00
2022-12-23T16:00:37.250Z,100.00
2022-12-23T16:03:07.721Z,100.00
2022-12-23T16:05:39.323Z,100.00
2022-12-23T16:08:23.042Z,100.00
2022-12-23T16:11:02.727Z,100.00
2022-12-23T16:13:29.611Z,100.00
2022-12-23T16:16:21.188Z,100.00
2022-12-23T16:18:48.316Z,100.00
2022-12-23T16:21:15.695Z,100.00
2022-12-23T16:23:50.304Z,100.00
2022-12-23T16:26:17.611Z,100.00
2022-12-23T16:28:51.708Z,100.00
2022-12-23T16:31:20.897Z,100.00
2022-12-23T16:33:47.791Z,98.85
2022-12-23T16:36:32.056Z,98.42
2022-12-23T16:39:24.408Z,96.84
2022-12-23T16:41:51.489Z,97.23
2022-12-23T16:44:18.576Z,97.74
2022-12-23T16:46:49.342Z,99.25
2022-12-23T16:49:20.009Z,99.72
2022-12-23T16:51:47.371Z,99.03
2022-12-23T16:54:18.182Z,97.30
2022-12-23T16:56:47.059Z,96.84
2022-12-23T16:59:15.147Z,93.11
2022-12-23T17:01:50.217Z,92.71
2022-12-23T17:04:17.176Z,91.54
2022-12-23T17:06:46.757Z,93.02
2022-12-23T17:09:14.425Z,93.74
2022-12-23T17:11:49.997Z,93.51
2022-12-23T17:14:22.893Z,92.49
2022-12-23T17:16:50.509Z,91.61
2022-12-23T17:19:23.339Z,89.74
2022-12-23T17:22:00.108Z,88.66
2022-12-23T17:24:27.621Z,92.07
2022-12-23T17:26:57.023Z,91.17
2022-12-23T17:29:24.108Z,91.40
2022-12-23T17:31:51.805Z,92.30
2022-12-23T17:34:22.001Z,90.27
2022-12-23T17:36:50.678Z,88.32
2022-12-23T17:39:21.292Z,89.41
2022-12-23T17:41:48.848Z,87.81
2022-12-23T17:44:17.410Z,87.29
2022-12-23T17:46:46.012Z,86.99
2022-12-23T17:49:12.933Z,87.60
2022-12-23T17:51:41.827Z,87.38
2022-12-23T17:54:21.742Z,86.34
2022-12-23T17:56:48.939Z,87.75
2022-12-23T17:59:15.880Z,88.52
2022-12-23T18:01:42.835Z,86.49
2022-12-23T18:04:09.756Z,86.96
2022-12-23T18:06:36.702Z,86.66
2022-12-23T18:09:03.607Z,85.44
2022-12-23T18:11:44.223Z,83.32
2022-12-23T18:14:17.552Z,83.08
2022-12-23T18:16:45.574Z,84.40
2022-12-23T18:19:18.240Z,87.30
2022-12-23T18:21:45.781Z,84.90
2022-12-23T18:24:12.809Z,84.90
2022-12-23T18:26:39.846Z,86.32
2022-12-23T18:29:06.729Z,87.29
2022-12-23T18:31:33.741Z,83.78
2022-12-23T18:34:00.784Z,86.17
2022-12-23T18:36:34.078Z,86.45
2022-12-23T18:39:01.255Z,86.66
2022-12-23T18:41:28.340Z,83.12
2022-12-23T18:43:55.782Z,85.63
2022-12-23T18:46:22.979Z,85.29
2022-12-23T18:48:49.969Z,87.20
2022-12-23T18:51:20.082Z,86.25
2022-12-23T18:53:48.242Z,87.50
2022-12-23T18:56:17.078Z,83.46
2022-12-23T18:58:43.914Z,84.01
2022-12-23T19:01:16.209Z,85.45
2022-12-23T19:03:43.925Z,83.62
2022-12-23T19:06:13.847Z,82.06
2022-12-23T19:08:42.301Z,82.18
2022-12-23T19:11:17.988Z,84.22
2022-12-23T19:13:45.514Z,84.75
2022-12-23T19:16:15.581Z,82.15
2022-12-23T19:18:42.749Z,82.82
2022-12-23T19:21:09.766Z,83.07
2022-12-23T19:23:37.432Z,82.51
2022-12-23T19:26:06.373Z,86.23
2022-12-23T19:28:34.079Z,83.74
2022-12-23T19:31:00.908Z,83.72
2022-12-23T19:33:27.988Z,84.63
2022-12-23T19:35:54.884Z,84.52
2022-12-23T19:38:21.679Z,85.34
2022-12-23T19:40:57.957Z,84.77
2022-12-23T19:43:24.874Z,87.19
2022-12-23T19:45:59.448Z,85.62
2022-12-23T19:48:27.196Z,84.11
2022-12-23T19:51:02.958Z,90.09
2022-12-23T19:53:30.526Z,91.46
2022-12-23T19:56:02.172Z,93.55
2022-12-23T19:58:33.042Z,91.25
2022-12-23T20:01:11.889Z,92.75
2022-12-23T20:03:39.638Z,92.39
2022-12-23T20:06:08.672Z,85.73
2022-12-23T20:08:35.788Z,89.24
2022-12-23T20:11:08.840Z,85.50
2022-12-23T20:13:36.724Z,83.86
2022-12-23T20:16:04.962Z,87.93
2022-12-23T20:18:32.248Z,85.97
2022-12-23T20:21:01.274Z,83.01
2022-12-23T20:23:29.129Z,82.55
2022-12-23T20:25:56.594Z,81.38
2022-12-23T20:28:23.999Z,80.28
2022-12-23T20:31:07.609Z,79.97
2022-12-23T20:33:39.184Z,75.86
2022-12-23T20:36:07.791Z,78.09
2022-12-23T20:38:36.163Z,76.67
2022-12-23T20:41:03.371Z,78.00
2022-12-23T20:43:30.504Z,75.99
2022-12-23T20:45:57.580Z,80.69
2022-12-23T20:48:26.899Z,78.97
2022-12-23T20:51:12.077Z,74.35
2022-12-23T20:53:39.515Z,81.98
2022-12-23T20:56:08.799Z,78.45
2022-12-23T20:58:55.313Z,78.62
2022-12-23T21:01:23.179Z,78.63
2022-12-23T21:03:50.524Z,75.53
2022-12-23T21:06:17.677Z,77.50
2022-12-23T21:08:44.875Z,77.17
2022-12-23T21:11:11.790Z,77.49
2022-12-23T21:13:40.647Z,80.98
2022-12-23T21:16:09.962Z,79.69
2022-12-23T21:18:43.977Z,82.65
2022-12-23T21:21:11.896Z,81.93
2022-12-23T21:23:41.866Z,80.17
2022-12-23T21:26:11.860Z,79.02
2022-12-23T21:28:40.497Z,81.21
2022-12-23T21:31:08.727Z,80.77
2022-12-23T21:33:41.146Z,80.79
2022-12-23T21:36:10.363Z,79.56
2022-12-23T21:38:42.343Z,80.07
2022-12-23T21:41:15.974Z,81.51
2022-12-23T21:43:44.655Z,82.11
2022-12-23T21:46:14.679Z,80.18
2022-12-23T21:48:41.937Z,81.27
2022-12-23T21:51:15.775Z,80.56
2022-12-23T21:53:44.577Z,84.28
2022-12-23T21:56:15.231Z,80.98
2022-12-23T21:58:43.133Z,81.15
2022-12-23T22:01:22.105Z,81.68
2022-12-23T22:03:50.447Z,81.13
2022-12-23T22:06:20.597Z,83.93
2022-12-23T22:08:48.374Z,82.72
2022-12-23T22:11:22.210Z,83.15
2022-12-23T22:13:49.570Z,83.31
2022-12-23T22:16:20.606Z,82.13
2022-12-23T22:18:48.888Z,82.75
2022-12-23T22:21:19.321Z,83.31
2022-12-23T22:23:46.802Z,85.18
2022-12-23T22:26:24.601Z,85.59
2022-12-23T22:28:53.624Z,87.03
2022-12-23T22:31:36.165Z,88.08
2022-12-23T22:34:04.100Z,88.04
2022-12-23T22:36:32.666Z,87.76
2022-12-23T22:39:01.337Z,88.69
2022-12-23T22:41:29.934Z,90.80
2022-12-23T22:43:59.500Z,90.42
2022-12-23T22:46:27.122Z,90.04
2022-12-23T22:48:54.537Z,90.70
2022-12-23T22:51:24.884Z,90.78
2022-12-23T22:53:52.224Z,90.13
2022-12-23T22:56:21.249Z,91.70
2022-12-23T22:58:49.282Z,91.89
2022-12-23T23:01:28.667Z,93.69
2022-12-23T23:03:57.627Z,94.85
2022-12-23T23:06:26.693Z,94.51
2022-12-23T23:08:55.149Z,93.89
2022-12-23T23:11:22.932Z,94.91
2022-12-23T23:13:50.004Z,95.41
2022-12-23T23:16:17.334Z,95.54
2022-12-23T23:18:44.927Z,94.72
2022-12-23T23:21:14.009Z,92.32
2022-12-23T23:23:41.149Z,91.66
2022-12-23T23:26:10.602Z,89.89
2022-12-23T23:28:38.674Z,87.90
2022-12-23T23:31:39.928Z,88.53
2022-12-23T23:33:52.937Z,90.45
2022-12-23T23:36:20.791Z,84.12
2022-12-23T23:38:47.618Z,85.99
2022-12-23T23:41:18.928Z,86.45
2022-12-23T23:43:49.661Z,82.40
2022-12-23T23:46:16.554Z,83.92
2022-12-23T23:48:43.527Z,81.68
2022-12-23T23:51:11.446Z,80.55
2022-12-23T23:53:38.424Z,79.46
2022-12-23T23:56:07.330Z,81.85
2022-12-23T23:58:35.835Z,77.26
